Air Quality Table

TIMESTAMP NO2 SO2 O3 PM10 PM2.5 TEMP HUM AIRPRES WS WD NO
2022-08-15 01:00 2.37 µg/m3 0.31 µg/m3 112.35 µg/m3 N/A N/A 27.24 °C 83.65 % 996.88 mbar 3.19 m/s 190.14 Deg 0.33 µg/m3
2022-08-14 01:00 4.38 µg/m3 0.66 µg/m3 113.68 µg/m3 N/A N/A 26.78 °C 77.3 % 999.50 mbar 4.5 m/s 204.34 Deg 0.58 µg/m3
2022-08-13 01:00 6.59 µg/m3 0.53 µg/m3 110.73 µg/m3 N/A N/A 26.27 °C 77.06 % 999.18 mbar 3.81 m/s 212.33 Deg 0.76 µg/m3
2022-08-12 01:00 5.57 µg/m3 0.31 µg/m3 92.47 µg/m3 N/A N/A 26.1 °C 78.36 % 999.83 mbar 2.64 m/s 131.47 Deg 0.59 µg/m3
2022-08-11 01:00 3.54 µg/m3 0.43 µg/m3 101.31 µg/m3 N/A N/A 26.62 °C 83.76 % 1,000.66 mbar 1.92 m/s 203.39 Deg 0.28 µg/m3
2022-08-10 01:00 0.73 µg/m3 0.66 µg/m3 113.47 µg/m3 N/A N/A 27.09 °C 84.41 % 1,000.80 mbar 2.03 m/s 169.52 Deg 0.1 µg/m3
2022-08-09 01:00 2.06 µg/m3 1.1 µg/m3 112.46 µg/m3 N/A N/A 27.93 °C 78.93 % 999.16 mbar 2.65 m/s 178.39 Deg 0.15 µg/m3
2022-08-08 01:00 3.4 µg/m3 0.76 µg/m3 102.92 µg/m3 N/A N/A 27.14 °C 81.84 % 997.84 mbar 3.26 m/s 223.9 Deg 0.21 µg/m3
2022-08-07 01:00 1.55 µg/m3 0.55 µg/m3 99.63 µg/m3 N/A N/A 27.17 °C 83.38 % 999.66 mbar 4.11 m/s 245.19 Deg 0.26 µg/m3
2022-08-06 01:00 2.4 µg/m3 0.78 µg/m3 102.18 µg/m3 N/A N/A 27.06 °C 79.66 % 1,001.16 mbar 3.13 m/s 258.3 Deg 0.41 µg/m3
2022-08-05 01:00 2.72 µg/m3 1.39 µg/m3 132.07 µg/m3 N/A N/A 27.42 °C 74.64 % 1,001.45 mbar 2.43 m/s 175.14 Deg 0.19 µg/m3
2022-08-04 01:00 3.54 µg/m3 1.58 µg/m3 114.35 µg/m3 N/A N/A 27.82 °C 67.91 % 1,000.40 mbar 2.72 m/s 184.66 Deg 0.27 µg/m3
2022-08-03 01:00 0.55 µg/m3 0.39 µg/m3 94.16 µg/m3 N/A N/A 26.82 °C 82.14 % 999.55 mbar 2.1 m/s 181.97 Deg 0.08 µg/m3
2022-08-02 01:00 1.12 µg/m3 0.2 µg/m3 103.7 µg/m3 N/A N/A 26.85 °C 83.94 % 999.35 mbar 2.78 m/s 187.77 Deg 0.17 µg/m3
2022-08-01 01:00 2.19 µg/m3 0.21 µg/m3 90.51 µg/m3 N/A N/A 26.76 °C 86.83 % 999.66 mbar 3.19 m/s 280.5 Deg 0.24 µg/m3
2022-07-31 01:00 0.28 µg/m3 0.19 µg/m3 83.65 µg/m3 N/A N/A 27.36 °C 87.45 % 1,000.69 mbar 4.54 m/s 242.21 Deg 0.11 µg/m3
2022-07-30 01:00 2.46 µg/m3 0.18 µg/m3 86.52 µg/m3 N/A N/A 27.34 °C 87.68 % 1,000.90 mbar 2.86 m/s 178.83 Deg 0.18 µg/m3
2022-07-29 01:00 1.19 µg/m3 0.21 µg/m3 91.97 µg/m3 N/A N/A 27.43 °C 85.57 % 997.95 mbar 3.81 m/s 169.45 Deg 0.12 µg/m3
2022-07-28 01:00 3.96 µg/m3 0.17 µg/m3 76.21 µg/m3 N/A N/A 26.9 °C 88.72 % 996.23 mbar 4.04 m/s 239.6 Deg 0.36 µg/m3
2022-07-27 01:00 2.4 µg/m3 0.17 µg/m3 93.83 µg/m3 N/A N/A 27.11 °C 87.08 % 997.73 mbar 4.92 m/s 249.41 Deg 0.31 µg/m3
2022-07-26 01:00 2.64 µg/m3 0.18 µg/m3 103.26 µg/m3 N/A N/A 27.29 °C 85.24 % 1,000.20 mbar 3.85 m/s 236.11 Deg 0.31 µg/m3
2022-07-25 01:00 0.38 µg/m3 0.3 µg/m3 93.01 µg/m3 N/A N/A 26.78 °C 84.35 % 1,003.04 mbar 4.69 m/s 246.04 Deg 0.1 µg/m3
2022-07-24 01:00 0.15 µg/m3 0.32 µg/m3 89.02 µg/m3 N/A N/A 26.57 °C 84.82 % 1,004.27 mbar 3.56 m/s 226.34 Deg 0.1 µg/m3
2022-07-23 01:00 -0.04 µg/m3 0.4 µg/m3 99.02 µg/m3 N/A N/A 26.51 °C 84.78 % 1,003.42 mbar 2.49 m/s 224.92 Deg 0.08 µg/m3
2022-07-22 01:00 0.46 µg/m3 0.84 µg/m3 108.65 µg/m3 N/A N/A 26.32 °C 79.73 % 1,003.60 mbar 2.13 m/s 248.36 Deg 0.15 µg/m3
2022-07-21 01:00 1.98 µg/m3 1.23 µg/m3 121.4 µg/m3 N/A N/A 26.99 °C 72.38 % 1,004.03 mbar 2.47 m/s 128.38 Deg 0.21 µg/m3
2022-07-20 01:00 3.82 µg/m3 1.32 µg/m3 116.74 µg/m3 N/A N/A 27.5 °C 69.92 % 1,003.65 mbar 3.1 m/s 196.46 Deg 0.21 µg/m3
2022-07-19 01:00 4.94 µg/m3 1.14 µg/m3 104.69 µg/m3 N/A N/A 26.28 °C 79.73 % 1,004.29 mbar 2.68 m/s 242.23 Deg 0.44 µg/m3
2022-07-18 01:00 1.82 µg/m3 0.52 µg/m3 98.77 µg/m3 N/A N/A 25.58 °C 82.49 % 1,004.00 mbar 2.5 m/s 212.46 Deg 0.14 µg/m3
2022-07-17 01:00 0.78 µg/m3 0.55 µg/m3 99.18 µg/m3 N/A N/A 24.82 °C 82.34 % 1,002.76 mbar 2.57 m/s 239.61 Deg 0.11 µg/m3

It is to be noted that the data is provisional and subject to quality assurance procedures. For validated data kindly refer your request to contact.air@era.org.mt